logo
Rechercher aéroport 
image banner adimage banner adimage banner ad
image banner ad

YHEW - Hedlow

Situé à Mulara, Australia

ICAO - YHEW, IATA -

Données fournies par Airmate  

Information générale

Coordonnées: S23°13'31" E150°36'12"
Élévation : 136 feet MSL.
Variation magnétique : 9° East
Voir autres Aéroports à Queensland

Données opérationnelles

Special qualification required
Heure actuelle UTC:
Heure actuelle locale:
Météo à : YBRK - Rockhampton ( 22 km )
METAR: YBRK 101000Z AUTO 11011KT 9999 // NCD 25/17 Q1012 RF00.0/000.0
TAF: TAF AMD YBRK 100532Z 1006/1106 09014KT 9999 FEW040 FM100800 11010KT 9999 SCT030 FM101200 15008KT 9999 -SHRA SCT018 BKN025 FM102100 11014KT 9999 -SHRA SCT020 FM110100 10015G25KT 9999 -SHRA SCT030
Voir NOTAMs / SUP AIP / TFR affectant cet aéroport [VIEW]
Fréquences de communication: [VIEW]

Pistes:

Identifiant RWYQFULongueur (ft)Largeur (ft)SurfaceLDA (ft)
17176°355445ASPH
35356°355445ASPH
0778°306132ASPH
25258°306132ASPH

Coordonnées de l'aéroport

Adresse: Mulara Australia

Vue satellite de YHEW